sensor_id;sensor_type;location;lat;lon;timestamp;P1;durP1;ratioP1;P2;durP2;ratioP2
43552;SDS011;29153;42.696;23.218;2024-02-15T00:02:29;22.20;;;13.03;;
43552;SDS011;29153;42.696;23.218;2024-02-15T00:04:56;20.37;;;9.70;;
43552;SDS011;29153;42.696;23.218;2024-02-15T00:07:24;14.30;;;7.42;;
43552;SDS011;29153;42.696;23.218;2024-02-15T00:09:52;12.63;;;6.33;;
43552;SDS011;29153;42.696;23.218;2024-02-15T00:12:22;16.90;;;9.78;;
43552;SDS011;29153;42.696;23.218;2024-02-15T00:14:49;13.35;;;6.78;;
43552;SDS011;29153;42.696;23.218;2024-02-15T00:17:17;16.40;;;10.18;;
43552;SDS011;29153;42.696;23.218;2024-02-15T00:19:44;14.40;;;8.00;;
43552;SDS011;29153;42.696;23.218;2024-02-15T00:22:12;12.50;;;6.78;;
43552;SDS011;29153;42.696;23.218;2024-02-15T00:24:39;9.90;;;5.20;;
43552;SDS011;29153;42.696;23.218;2024-02-15T00:27:08;13.15;;;5.67;;
43552;SDS011;29153;42.696;23.218;2024-02-15T00:29:36;12.15;;;6.45;;
43552;SDS011;29153;42.696;23.218;2024-02-15T00:32:05;14.10;;;8.58;;
43552;SDS011;29153;42.696;23.218;2024-02-15T00:34:33;11.45;;;5.33;;
43552;SDS011;29153;42.696;23.218;2024-02-15T00:37:01;12.05;;;6.30;;
43552;SDS011;29153;42.696;23.218;2024-02-15T00:39:29;12.93;;;6.95;;
43552;SDS011;29153;42.696;23.218;2024-02-15T00:41:57;12.20;;;6.53;;
43552;SDS011;29153;42.696;23.218;2024-02-15T00:44:27;12.93;;;6.72;;
43552;SDS011;29153;42.696;23.218;2024-02-15T00:46:54;11.43;;;5.50;;
43552;SDS011;29153;42.696;23.218;2024-02-15T00:49:22;11.83;;;6.35;;
43552;SDS011;29153;42.696;23.218;2024-02-15T00:51:51;17.92;;;9.25;;
43552;SDS011;29153;42.696;23.218;2024-02-15T00:54:19;11.20;;;5.97;;
43552;SDS011;29153;42.696;23.218;2024-02-15T00:56:48;10.65;;;5.37;;
43552;SDS011;29153;42.696;23.218;2024-02-15T00:59:16;9.25;;;5.05;;
43552;SDS011;29153;42.696;23.218;2024-02-15T01:01:44;9.10;;;5.05;;
43552;SDS011;29153;42.696;23.218;2024-02-15T01:04:13;11.15;;;5.25;;
43552;SDS011;29153;42.696;23.218;2024-02-15T01:06:41;10.90;;;5.40;;
43552;SDS011;29153;42.696;23.218;2024-02-15T01:09:09;11.20;;;5.90;;
43552;SDS011;29153;42.696;23.218;2024-02-15T01:11:36;8.23;;;4.50;;
43552;SDS011;29153;42.696;23.218;2024-02-15T01:14:04;8.95;;;4.42;;
43552;SDS011;29153;42.696;23.218;2024-02-15T01:16:33;14.50;;;6.58;;
43552;SDS011;29153;42.696;23.218;2024-02-15T01:19:01;10.30;;;4.90;;
43552;SDS011;29153;42.696;23.218;2024-02-15T01:21:30;10.50;;;6.10;;
43552;SDS011;29153;42.696;23.218;2024-02-15T01:23:59;13.72;;;7.10;;
43552;SDS011;29153;42.696;23.218;2024-02-15T01:26:26;11.78;;;5.92;;
43552;SDS011;29153;42.696;23.218;2024-02-15T01:28:54;11.85;;;5.60;;
43552;SDS011;29153;42.696;23.218;2024-02-15T01:31:22;11.95;;;6.42;;
43552;SDS011;29153;42.696;23.218;2024-02-15T01:33:49;13.30;;;6.55;;
43552;SDS011;29153;42.696;23.218;2024-02-15T01:36:17;13.43;;;7.20;;
43552;SDS011;29153;42.696;23.218;2024-02-15T01:38:45;11.30;;;5.17;;
43552;SDS011;29153;42.696;23.218;2024-02-15T01:41:13;9.75;;;4.80;;
43552;SDS011;29153;42.696;23.218;2024-02-15T01:43:43;10.15;;;6.40;;
43552;SDS011;29153;42.696;23.218;2024-02-15T01:46:13;11.05;;;5.90;;
43552;SDS011;29153;42.696;23.218;2024-02-15T01:48:42;13.28;;;5.65;;
43552;SDS011;29153;42.696;23.218;2024-02-15T01:51:10;11.78;;;5.60;;
43552;SDS011;29153;42.696;23.218;2024-02-15T01:53:46;13.55;;;5.75;;
43552;SDS011;29153;42.696;23.218;2024-02-15T01:56:11;11.85;;;5.85;;
43552;SDS011;29153;42.696;23.218;2024-02-15T01:58:40;10.78;;;5.70;;
43552;SDS011;29153;42.696;23.218;2024-02-15T02:01:09;12.18;;;5.45;;
43552;SDS011;29153;42.696;23.218;2024-02-15T02:03:37;10.98;;;5.55;;
43552;SDS011;29153;42.696;23.218;2024-02-15T02:06:06;10.28;;;5.10;;
43552;SDS011;29153;42.696;23.218;2024-02-15T02:08:35;11.60;;;5.17;;
43552;SDS011;29153;42.696;23.218;2024-02-15T02:11:02;10.72;;;4.95;;
43552;SDS011;29153;42.696;23.218;2024-02-15T02:13:30;9.58;;;5.00;;
43552;SDS011;29153;42.696;23.218;2024-02-15T02:15:58;9.00;;;5.08;;
43552;SDS011;29153;42.696;23.218;2024-02-15T02:18:25;10.88;;;5.62;;
43552;SDS011;29153;42.696;23.218;2024-02-15T02:20:53;9.30;;;4.72;;
43552;SDS011;29153;42.696;23.218;2024-02-15T02:23:21;11.30;;;5.05;;
43552;SDS011;29153;42.696;23.218;2024-02-15T02:25:52;11.73;;;5.45;;
43552;SDS011;29153;42.696;23.218;2024-02-15T02:28:21;11.68;;;5.90;;
43552;SDS011;29153;42.696;23.218;2024-02-15T02:30:49;10.53;;;5.15;;
43552;SDS011;29153;42.696;23.218;2024-02-15T02:33:17;12.05;;;5.67;;
43552;SDS011;29153;42.696;23.218;2024-02-15T02:35:46;10.43;;;5.22;;
43552;SDS011;29153;42.696;23.218;2024-02-15T02:38:14;11.12;;;5.75;;
43552;SDS011;29153;42.696;23.218;2024-02-15T02:40:41;13.55;;;5.90;;
43552;SDS011;29153;42.696;23.218;2024-02-15T02:43:09;12.68;;;5.78;;
43552;SDS011;29153;42.696;23.218;2024-02-15T02:45:37;13.78;;;6.05;;
43552;SDS011;29153;42.696;23.218;2024-02-15T02:48:04;11.73;;;5.53;;
43552;SDS011;29153;42.696;23.218;2024-02-15T02:50:32;10.08;;;4.80;;
43552;SDS011;29153;42.696;23.218;2024-02-15T02:52:59;12.80;;;5.83;;
43552;SDS011;29153;42.696;23.218;2024-02-15T02:55:27;11.33;;;5.55;;
43552;SDS011;29153;42.696;23.218;2024-02-15T02:57:55;12.98;;;5.67;;
43552;SDS011;29153;42.696;23.218;2024-02-15T03:00:22;13.60;;;6.35;;
43552;SDS011;29153;42.696;23.218;2024-02-15T03:02:50;16.02;;;7.67;;
43552;SDS011;29153;42.696;23.218;2024-02-15T03:05:17;11.38;;;5.37;;
43552;SDS011;29153;42.696;23.218;2024-02-15T03:07:46;15.65;;;7.70;;
43552;SDS011;29153;42.696;23.218;2024-02-15T03:10:14;13.13;;;6.72;;
43552;SDS011;29153;42.696;23.218;2024-02-15T03:12:41;11.83;;;6.08;;
43552;SDS011;29153;42.696;23.218;2024-02-15T03:15:11;12.23;;;5.75;;
43552;SDS011;29153;42.696;23.218;2024-02-15T03:17:39;12.85;;;5.70;;
43552;SDS011;29153;42.696;23.218;2024-02-15T03:20:08;10.40;;;5.92;;
43552;SDS011;29153;42.696;23.218;2024-02-15T03:22:38;11.65;;;5.30;;
43552;SDS011;29153;42.696;23.218;2024-02-15T03:25:07;12.55;;;5.80;;
43552;SDS011;29153;42.696;23.218;2024-02-15T03:27:35;10.88;;;5.67;;
43552;SDS011;29153;42.696;23.218;2024-02-15T03:30:04;14.30;;;5.97;;
43552;SDS011;29153;42.696;23.218;2024-02-15T03:32:32;13.62;;;6.75;;
43552;SDS011;29153;42.696;23.218;2024-02-15T03:35:00;14.70;;;6.75;;
43552;SDS011;29153;42.696;23.218;2024-02-15T03:37:27;13.08;;;6.17;;
43552;SDS011;29153;42.696;23.218;2024-02-15T03:39:55;14.25;;;6.60;;
43552;SDS011;29153;42.696;23.218;2024-02-15T03:42:23;13.30;;;6.62;;
43552;SDS011;29153;42.696;23.218;2024-02-15T03:44:51;12.75;;;6.67;;
43552;SDS011;29153;42.696;23.218;2024-02-15T03:47:20;10.80;;;5.67;;
43552;SDS011;29153;42.696;23.218;2024-02-15T03:49:47;11.45;;;5.47;;
43552;SDS011;29153;42.696;23.218;2024-02-15T03:52:15;13.43;;;6.60;;
43552;SDS011;29153;42.696;23.218;2024-02-15T03:54:42;14.53;;;6.90;;
43552;SDS011;29153;42.696;23.218;2024-02-15T03:57:11;12.05;;;5.72;;
43552;SDS011;29153;42.696;23.218;2024-02-15T03:59:38;11.63;;;5.90;;
43552;SDS011;29153;42.696;23.218;2024-02-15T04:02:06;11.93;;;5.58;;
43552;SDS011;29153;42.696;23.218;2024-02-15T04:04:36;15.80;;;6.03;;
43552;SDS011;29153;42.696;23.218;2024-02-15T04:07:05;11.95;;;5.80;;
43552;SDS011;29153;42.696;23.218;2024-02-15T04:09:32;11.50;;;6.03;;
43552;SDS011;29153;42.696;23.218;2024-02-15T04:12:01;12.73;;;6.37;;
43552;SDS011;29153;42.696;23.218;2024-02-15T04:14:29;14.83;;;6.58;;
43552;SDS011;29153;42.696;23.218;2024-02-15T04:16:58;10.95;;;5.55;;
43552;SDS011;29153;42.696;23.218;2024-02-15T04:19:27;12.90;;;6.10;;
43552;SDS011;29153;42.696;23.218;2024-02-15T04:21:56;18.45;;;6.10;;
43552;SDS011;29153;42.696;23.218;2024-02-15T04:24:24;14.68;;;5.80;;
43552;SDS011;29153;42.696;23.218;2024-02-15T04:26:52;13.95;;;6.05;;
43552;SDS011;29153;42.696;23.218;2024-02-15T04:29:20;13.22;;;6.10;;
43552;SDS011;29153;42.696;23.218;2024-02-15T04:31:48;11.75;;;5.58;;
43552;SDS011;29153;42.696;23.218;2024-02-15T04:34:15;12.88;;;5.60;;
43552;SDS011;29153;42.696;23.218;2024-02-15T04:36:47;10.75;;;5.33;;
43552;SDS011;29153;42.696;23.218;2024-02-15T04:39:22;16.30;;;6.28;;
43552;SDS011;29153;42.696;23.218;2024-02-15T04:41:51;13.00;;;6.08;;
43552;SDS011;29153;42.696;23.218;2024-02-15T04:44:21;14.70;;;6.05;;
43552;SDS011;29153;42.696;23.218;2024-02-15T04:46:50;14.18;;;5.72;;
43552;SDS011;29153;42.696;23.218;2024-02-15T04:49:17;12.23;;;5.37;;
43552;SDS011;29153;42.696;23.218;2024-02-15T04:51:45;13.35;;;6.28;;
43552;SDS011;29153;42.696;23.218;2024-02-15T04:54:14;14.35;;;6.33;;
43552;SDS011;29153;42.696;23.218;2024-02-15T04:56:43;14.20;;;6.58;;
43552;SDS011;29153;42.696;23.218;2024-02-15T04:59:11;14.63;;;6.05;;
43552;SDS011;29153;42.696;23.218;2024-02-15T05:01:41;13.70;;;6.75;;
43552;SDS011;29153;42.696;23.218;2024-02-15T05:04:11;12.80;;;5.83;;
43552;SDS011;29153;42.696;23.218;2024-02-15T05:06:39;13.20;;;5.90;;
43552;SDS011;29153;42.696;23.218;2024-02-15T05:09:07;15.38;;;6.62;;
43552;SDS011;29153;42.696;23.218;2024-02-15T05:11:36;13.25;;;6.10;;
43552;SDS011;29153;42.696;23.218;2024-02-15T05:14:06;12.88;;;6.42;;
43552;SDS011;29153;42.696;23.218;2024-02-15T05:16:36;14.13;;;5.80;;
43552;SDS011;29153;42.696;23.218;2024-02-15T05:19:05;15.40;;;7.08;;
43552;SDS011;29153;42.696;23.218;2024-02-15T05:21:33;18.55;;;7.50;;
43552;SDS011;29153;42.696;23.218;2024-02-15T05:24:00;15.18;;;6.72;;
43552;SDS011;29153;42.696;23.218;2024-02-15T05:26:28;17.15;;;6.62;;
43552;SDS011;29153;42.696;23.218;2024-02-15T05:28:56;14.10;;;6.78;;
43552;SDS011;29153;42.696;23.218;2024-02-15T05:31:23;16.17;;;6.53;;
43552;SDS011;29153;42.696;23.218;2024-02-15T05:33:52;14.65;;;6.40;;
43552;SDS011;29153;42.696;23.218;2024-02-15T05:36:20;14.23;;;6.65;;
43552;SDS011;29153;42.696;23.218;2024-02-15T05:38:51;12.55;;;6.10;;
43552;SDS011;29153;42.696;23.218;2024-02-15T05:41:20;17.40;;;6.22;;
43552;SDS011;29153;42.696;23.218;2024-02-15T05:43:48;13.43;;;5.92;;
43552;SDS011;29153;42.696;23.218;2024-02-15T05:46:17;13.20;;;5.40;;
43552;SDS011;29153;42.696;23.218;2024-02-15T05:48:46;14.35;;;5.58;;
43552;SDS011;29153;42.696;23.218;2024-02-15T05:51:14;14.35;;;5.62;;
43552;SDS011;29153;42.696;23.218;2024-02-15T05:53:42;16.10;;;6.72;;
43552;SDS011;29153;42.696;23.218;2024-02-15T05:58:37;13.32;;;5.83;;
43552;SDS011;29153;42.696;23.218;2024-02-15T06:01:08;14.28;;;5.42;;
43552;SDS011;29153;42.696;23.218;2024-02-15T06:03:37;22.95;;;8.63;;
43552;SDS011;29153;42.696;23.218;2024-02-15T06:06:06;14.30;;;6.00;;
43552;SDS011;29153;42.696;23.218;2024-02-15T06:08:33;16.35;;;6.65;;
43552;SDS011;29153;42.696;23.218;2024-02-15T06:11:02;15.23;;;6.50;;
43552;SDS011;29153;42.696;23.218;2024-02-15T06:13:35;13.78;;;6.22;;
43552;SDS011;29153;42.696;23.218;2024-02-15T06:16:02;16.73;;;6.70;;
43552;SDS011;29153;42.696;23.218;2024-02-15T06:18:32;12.63;;;5.60;;
43552;SDS011;29153;42.696;23.218;2024-02-15T06:20:59;13.40;;;5.95;;
43552;SDS011;29153;42.696;23.218;2024-02-15T06:23:27;15.00;;;5.58;;
43552;SDS011;29153;42.696;23.218;2024-02-15T06:25:55;15.03;;;5.47;;
43552;SDS011;29153;42.696;23.218;2024-02-15T06:28:23;11.28;;;5.62;;
43552;SDS011;29153;42.696;23.218;2024-02-15T06:31:09;13.30;;;5.15;;
43552;SDS011;29153;42.696;23.218;2024-02-15T06:33:56;14.60;;;5.45;;
43552;SDS011;29153;42.696;23.218;2024-02-15T06:36:53;22.10;;;5.28;;
43552;SDS011;29153;42.696;23.218;2024-02-15T06:39:38;12.13;;;5.58;;
43552;SDS011;29153;42.696;23.218;2024-02-15T06:42:08;12.88;;;5.83;;
43552;SDS011;29153;42.696;23.218;2024-02-15T06:44:39;23.35;;;6.90;;
43552;SDS011;29153;42.696;23.218;2024-02-15T06:47:06;12.18;;;5.80;;
43552;SDS011;29153;42.696;23.218;2024-02-15T06:49:38;17.00;;;6.28;;
43552;SDS011;29153;42.696;23.218;2024-02-15T06:52:09;13.68;;;6.35;;
43552;SDS011;29153;42.696;23.218;2024-02-15T06:54:41;15.68;;;5.90;;
43552;SDS011;29153;42.696;23.218;2024-02-15T06:57:09;12.85;;;5.15;;
43552;SDS011;29153;42.696;23.218;2024-02-15T06:59:36;11.68;;;5.42;;
43552;SDS011;29153;42.696;23.218;2024-02-15T07:02:05;12.82;;;5.05;;
43552;SDS011;29153;42.696;23.218;2024-02-15T07:04:33;12.93;;;5.42;;
43552;SDS011;29153;42.696;23.218;2024-02-15T07:07:02;21.00;;;5.65;;
43552;SDS011;29153;42.696;23.218;2024-02-15T07:09:29;11.83;;;5.00;;
43552;SDS011;29153;42.696;23.218;2024-02-15T07:11:58;11.57;;;4.85;;
43552;SDS011;29153;42.696;23.218;2024-02-15T07:14:25;11.00;;;5.37;;
43552;SDS011;29153;42.696;23.218;2024-02-15T07:16:53;13.22;;;5.08;;
43552;SDS011;29153;42.696;23.218;2024-02-15T07:19:22;11.80;;;5.03;;
43552;SDS011;29153;42.696;23.218;2024-02-15T07:21:52;14.98;;;5.50;;
43552;SDS011;29153;42.696;23.218;2024-02-15T07:24:20;10.50;;;4.45;;
43552;SDS011;29153;42.696;23.218;2024-02-15T07:26:48;10.60;;;4.67;;
43552;SDS011;29153;42.696;23.218;2024-02-15T07:29:17;11.55;;;5.28;;
43552;SDS011;29153;42.696;23.218;2024-02-15T07:31:45;13.03;;;4.85;;
43552;SDS011;29153;42.696;23.218;2024-02-15T07:34:13;11.73;;;5.25;;
43552;SDS011;29153;42.696;23.218;2024-02-15T07:36:41;13.38;;;5.08;;
43552;SDS011;29153;42.696;23.218;2024-02-15T07:39:11;11.35;;;4.67;;
43552;SDS011;29153;42.696;23.218;2024-02-15T07:41:40;13.20;;;5.75;;
43552;SDS011;29153;42.696;23.218;2024-02-15T07:44:07;14.73;;;4.83;;
43552;SDS011;29153;42.696;23.218;2024-02-15T07:46:35;9.90;;;4.67;;
43552;SDS011;29153;42.696;23.218;2024-02-15T07:49:04;12.95;;;4.87;;
43552;SDS011;29153;42.696;23.218;2024-02-15T07:51:32;15.23;;;5.40;;
43552;SDS011;29153;42.696;23.218;2024-02-15T07:54:00;14.50;;;5.65;;
43552;SDS011;29153;42.696;23.218;2024-02-15T07:56:28;11.08;;;5.08;;
43552;SDS011;29153;42.696;23.218;2024-02-15T07:58:56;10.03;;;5.00;;
43552;SDS011;29153;42.696;23.218;2024-02-15T08:01:23;10.88;;;4.58;;
43552;SDS011;29153;42.696;23.218;2024-02-15T08:03:52;14.25;;;5.05;;
43552;SDS011;29153;42.696;23.218;2024-02-15T08:06:19;12.37;;;5.05;;
43552;SDS011;29153;42.696;23.218;2024-02-15T08:08:48;11.65;;;5.28;;
43552;SDS011;29153;42.696;23.218;2024-02-15T08:11:17;10.23;;;4.80;;
43552;SDS011;29153;42.696;23.218;2024-02-15T08:16:18;10.60;;;5.22;;
43552;SDS011;29153;42.696;23.218;2024-02-15T08:18:52;11.45;;;4.62;;
43552;SDS011;29153;42.696;23.218;2024-02-15T08:21:30;10.35;;;5.30;;
43552;SDS011;29153;42.696;23.218;2024-02-15T08:24:06;13.45;;;5.12;;
43552;SDS011;29153;42.696;23.218;2024-02-15T08:26:38;20.52;;;9.85;;
43552;SDS011;29153;42.696;23.218;2024-02-15T08:29:07;12.05;;;4.80;;
43552;SDS011;29153;42.696;23.218;2024-02-15T08:31:39;10.08;;;4.72;;
43552;SDS011;29153;42.696;23.218;2024-02-15T08:34:07;12.80;;;4.75;;
43552;SDS011;29153;42.696;23.218;2024-02-15T08:36:36;10.63;;;5.33;;
43552;SDS011;29153;42.696;23.218;2024-02-15T08:39:05;14.38;;;7.28;;
43552;SDS011;29153;42.696;23.218;2024-02-15T08:41:34;10.40;;;4.65;;
43552;SDS011;29153;42.696;23.218;2024-02-15T08:44:02;9.45;;;4.97;;
43552;SDS011;29153;42.696;23.218;2024-02-15T08:46:31;11.70;;;5.17;;
43552;SDS011;29153;42.696;23.218;2024-02-15T08:48:58;21.10;;;8.63;;
43552;SDS011;29153;42.696;23.218;2024-02-15T08:51:26;12.10;;;5.72;;
43552;SDS011;29153;42.696;23.218;2024-02-15T08:53:53;10.63;;;4.65;;
43552;SDS011;29153;42.696;23.218;2024-02-15T08:56:21;13.08;;;5.05;;
43552;SDS011;29153;42.696;23.218;2024-02-15T08:58:49;13.90;;;5.33;;
43552;SDS011;29153;42.696;23.218;2024-02-15T09:01:16;14.43;;;6.12;;
43552;SDS011;29153;42.696;23.218;2024-02-15T09:03:44;12.00;;;5.90;;
43552;SDS011;29153;42.696;23.218;2024-02-15T09:06:11;9.50;;;5.08;;
43552;SDS011;29153;42.696;23.218;2024-02-15T09:08:39;9.70;;;4.75;;
43552;SDS011;29153;42.696;23.218;2024-02-15T09:11:06;11.68;;;5.05;;
43552;SDS011;29153;42.696;23.218;2024-02-15T09:13:35;12.15;;;4.85;;
43552;SDS011;29153;42.696;23.218;2024-02-15T09:16:03;12.20;;;5.50;;
43552;SDS011;29153;42.696;23.218;2024-02-15T09:18:30;13.78;;;5.35;;
43552;SDS011;29153;42.696;23.218;2024-02-15T09:20:59;9.73;;;5.67;;
43552;SDS011;29153;42.696;23.218;2024-02-15T09:23:26;10.15;;;4.90;;
43552;SDS011;29153;42.696;23.218;2024-02-15T09:25:54;10.70;;;5.05;;
43552;SDS011;29153;42.696;23.218;2024-02-15T09:28:21;9.18;;;4.70;;
43552;SDS011;29153;42.696;23.218;2024-02-15T09:30:49;9.15;;;3.87;;
43552;SDS011;29153;42.696;23.218;2024-02-15T09:33:21;13.25;;;4.20;;
43552;SDS011;29153;42.696;23.218;2024-02-15T09:35:48;9.25;;;4.03;;
43552;SDS011;29153;42.696;23.218;2024-02-15T09:38:16;7.28;;;3.42;;
43552;SDS011;29153;42.696;23.218;2024-02-15T09:40:48;6.75;;;3.70;;
43552;SDS011;29153;42.696;23.218;2024-02-15T09:43:17;9.33;;;4.28;;
43552;SDS011;29153;42.696;23.218;2024-02-15T09:45:44;10.80;;;5.28;;
43552;SDS011;29153;42.696;23.218;2024-02-15T09:48:14;9.55;;;4.70;;
43552;SDS011;29153;42.696;23.218;2024-02-15T09:50:44;10.23;;;4.58;;
43552;SDS011;29153;42.696;23.218;2024-02-15T09:53:13;10.38;;;4.15;;
43552;SDS011;29153;42.696;23.218;2024-02-15T09:55:43;12.07;;;5.03;;
43552;SDS011;29153;42.696;23.218;2024-02-15T09:58:11;10.78;;;4.60;;
43552;SDS011;29153;42.696;23.218;2024-02-15T10:00:38;10.95;;;4.80;;
43552;SDS011;29153;42.696;23.218;2024-02-15T10:03:06;10.85;;;4.60;;
43552;SDS011;29153;42.696;23.218;2024-02-15T10:05:34;10.63;;;4.67;;
43552;SDS011;29153;42.696;23.218;2024-02-15T10:08:02;8.43;;;4.47;;
43552;SDS011;29153;42.696;23.218;2024-02-15T10:10:30;10.18;;;4.80;;
43552;SDS011;29153;42.696;23.218;2024-02-15T10:12:59;10.53;;;4.67;;
43552;SDS011;29153;42.696;23.218;2024-02-15T10:18:03;8.73;;;4.47;;
43552;SDS011;29153;42.696;23.218;2024-02-15T10:20:34;11.78;;;5.05;;
43552;SDS011;29153;42.696;23.218;2024-02-15T10:23:13;9.10;;;4.35;;
43552;SDS011;29153;42.696;23.218;2024-02-15T10:25:43;10.80;;;5.33;;
43552;SDS011;29153;42.696;23.218;2024-02-15T10:28:12;10.10;;;4.65;;
43552;SDS011;29153;42.696;23.218;2024-02-15T10:30:41;10.60;;;4.97;;
43552;SDS011;29153;42.696;23.218;2024-02-15T10:33:17;10.18;;;4.33;;
43552;SDS011;29153;42.696;23.218;2024-02-15T10:35:48;9.58;;;4.85;;
43552;SDS011;29153;42.696;23.218;2024-02-15T10:38:15;11.28;;;5.20;;
43552;SDS011;29153;42.696;23.218;2024-02-15T10:40:43;10.78;;;4.50;;
43552;SDS011;29153;42.696;23.218;2024-02-15T10:43:11;10.60;;;4.87;;
43552;SDS011;29153;42.696;23.218;2024-02-15T10:45:39;9.05;;;4.55;;
43552;SDS011;29153;42.696;23.218;2024-02-15T10:48:07;9.28;;;4.60;;
43552;SDS011;29153;42.696;23.218;2024-02-15T10:50:35;7.40;;;4.37;;
43552;SDS011;29153;42.696;23.218;2024-02-15T10:53:10;9.75;;;4.80;;
43552;SDS011;29153;42.696;23.218;2024-02-15T10:55:44;10.00;;;4.05;;
43552;SDS011;29153;42.696;23.218;2024-02-15T10:58:12;8.28;;;3.87;;
43552;SDS011;29153;42.696;23.218;2024-02-15T11:00:42;9.85;;;4.65;;
43552;SDS011;29153;42.696;23.218;2024-02-15T11:03:14;9.58;;;4.00;;
43552;SDS011;29153;42.696;23.218;2024-02-15T11:05:43;7.10;;;3.67;;
43552;SDS011;29153;42.696;23.218;2024-02-15T11:08:11;12.00;;;4.62;;
43552;SDS011;29153;42.696;23.218;2024-02-15T11:10:39;8.40;;;3.55;;
43552;SDS011;29153;42.696;23.218;2024-02-15T11:13:09;8.53;;;3.85;;
43552;SDS011;29153;42.696;23.218;2024-02-15T11:15:43;9.73;;;3.42;;
43552;SDS011;29153;42.696;23.218;2024-02-15T11:21:11;8.65;;;3.58;;
43552;SDS011;29153;42.696;23.218;2024-02-15T11:23:39;6.87;;;3.45;;
43552;SDS011;29153;42.696;23.218;2024-02-15T11:26:13;8.75;;;3.65;;
43552;SDS011;29153;42.696;23.218;2024-02-15T11:28:56;8.90;;;3.87;;
43552;SDS011;29153;42.696;23.218;2024-02-15T11:37:10;7.03;;;3.37;;
43552;SDS011;29153;42.696;23.218;2024-02-15T11:39:59;10.45;;;5.53;;
43552;SDS011;29153;42.696;23.218;2024-02-15T11:42:28;8.90;;;4.05;;
43552;SDS011;29153;42.696;23.218;2024-02-15T11:45:02;7.37;;;3.47;;
43552;SDS011;29153;42.696;23.218;2024-02-15T11:47:34;7.28;;;3.47;;
43552;SDS011;29153;42.696;23.218;2024-02-15T11:50:07;8.50;;;3.58;;
43552;SDS011;29153;42.696;23.218;2024-02-15T11:52:38;14.47;;;6.30;;
43552;SDS011;29153;42.696;23.218;2024-02-15T11:55:08;7.30;;;3.62;;
43552;SDS011;29153;42.696;23.218;2024-02-15T11:57:42;7.80;;;3.70;;
43552;SDS011;29153;42.696;23.218;2024-02-15T12:00:23;6.75;;;3.25;;
43552;SDS011;29153;42.696;23.218;2024-02-15T12:03:09;7.42;;;3.37;;
43552;SDS011;29153;42.696;23.218;2024-02-15T12:05:55;7.80;;;3.60;;
43552;SDS011;29153;42.696;23.218;2024-02-15T12:08:43;6.05;;;3.27;;
43552;SDS011;29153;42.696;23.218;2024-02-15T12:11:31;7.67;;;3.90;;
43552;SDS011;29153;42.696;23.218;2024-02-15T12:14:17;6.28;;;3.30;;
43552;SDS011;29153;42.696;23.218;2024-02-15T12:17:04;8.70;;;3.45;;
43552;SDS011;29153;42.696;23.218;2024-02-15T12:19:52;6.20;;;3.12;;
43552;SDS011;29153;42.696;23.218;2024-02-15T12:22:21;6.12;;;3.45;;
43552;SDS011;29153;42.696;23.218;2024-02-15T12:25:00;6.28;;;3.25;;
43552;SDS011;29153;42.696;23.218;2024-02-15T12:27:33;9.70;;;4.90;;
43552;SDS011;29153;42.696;23.218;2024-02-15T12:30:01;19.23;;;7.53;;
43552;SDS011;29153;42.696;23.218;2024-02-15T12:32:30;9.45;;;3.98;;
43552;SDS011;29153;42.696;23.218;2024-02-15T12:35:10;8.15;;;3.98;;
43552;SDS011;29153;42.696;23.218;2024-02-15T12:38:00;8.03;;;3.55;;
43552;SDS011;29153;42.696;23.218;2024-02-15T12:40:15;8.20;;;3.98;;
43552;SDS011;29153;42.696;23.218;2024-02-15T12:42:47;7.67;;;4.00;;
43552;SDS011;29153;42.696;23.218;2024-02-15T12:45:17;7.37;;;3.35;;
43552;SDS011;29153;42.696;23.218;2024-02-15T12:47:52;9.33;;;3.60;;
43552;SDS011;29153;42.696;23.218;2024-02-15T12:50:21;8.33;;;3.45;;
43552;SDS011;29153;42.696;23.218;2024-02-15T12:52:50;8.18;;;3.80;;
43552;SDS011;29153;42.696;23.218;2024-02-15T12:55:22;7.53;;;3.87;;
43552;SDS011;29153;42.696;23.218;2024-02-15T12:57:51;9.40;;;3.98;;
43552;SDS011;29153;42.696;23.218;2024-02-15T13:00:23;8.03;;;4.10;;
43552;SDS011;29153;42.696;23.218;2024-02-15T13:02:57;7.12;;;3.85;;
43552;SDS011;29153;42.696;23.218;2024-02-15T13:05:26;9.35;;;4.42;;
43552;SDS011;29153;42.696;23.218;2024-02-15T13:07:54;6.80;;;3.50;;
43552;SDS011;29153;42.696;23.218;2024-02-15T13:10:22;10.63;;;3.98;;
43552;SDS011;29153;42.696;23.218;2024-02-15T13:12:51;7.37;;;3.45;;
43552;SDS011;29153;42.696;23.218;2024-02-15T13:15:21;6.85;;;3.35;;
43552;SDS011;29153;42.696;23.218;2024-02-15T13:17:51;6.40;;;3.20;;
43552;SDS011;29153;42.696;23.218;2024-02-15T13:20:26;8.73;;;4.00;;
43552;SDS011;29153;42.696;23.218;2024-02-15T13:22:55;7.80;;;3.50;;
43552;SDS011;29153;42.696;23.218;2024-02-15T13:25:27;7.03;;;3.58;;
43552;SDS011;29153;42.696;23.218;2024-02-15T13:27:55;7.45;;;3.58;;
43552;SDS011;29153;42.696;23.218;2024-02-15T13:30:23;7.33;;;3.70;;
43552;SDS011;29153;42.696;23.218;2024-02-15T13:32:52;7.60;;;3.75;;
43552;SDS011;29153;42.696;23.218;2024-02-15T13:35:20;7.28;;;3.60;;
43552;SDS011;29153;42.696;23.218;2024-02-15T13:37:49;5.83;;;3.33;;
43552;SDS011;29153;42.696;23.218;2024-02-15T13:40:19;8.25;;;3.58;;
43552;SDS011;29153;42.696;23.218;2024-02-15T13:42:52;8.78;;;3.55;;
43552;SDS011;29153;42.696;23.218;2024-02-15T13:45:24;8.38;;;3.58;;
43552;SDS011;29153;42.696;23.218;2024-02-15T13:47:55;6.83;;;3.40;;
43552;SDS011;29153;42.696;23.218;2024-02-15T13:50:23;5.90;;;3.45;;
43552;SDS011;29153;42.696;23.218;2024-02-15T13:52:51;9.03;;;3.52;;
43552;SDS011;29153;42.696;23.218;2024-02-15T13:55:18;8.00;;;3.45;;
43552;SDS011;29153;42.696;23.218;2024-02-15T13:57:46;8.08;;;5.55;;
43552;SDS011;29153;42.696;23.218;2024-02-15T14:00:15;6.55;;;3.58;;
43552;SDS011;29153;42.696;23.218;2024-02-15T14:02:49;10.30;;;4.30;;
43552;SDS011;29153;42.696;23.218;2024-02-15T14:05:20;8.50;;;3.62;;
43552;SDS011;29153;42.696;23.218;2024-02-15T14:07:51;17.87;;;9.33;;
43552;SDS011;29153;42.696;23.218;2024-02-15T14:10:24;9.58;;;5.20;;
43552;SDS011;29153;42.696;23.218;2024-02-15T14:12:53;8.98;;;3.67;;
43552;SDS011;29153;42.696;23.218;2024-02-15T14:15:31;7.95;;;3.65;;
43552;SDS011;29153;42.696;23.218;2024-02-15T14:18:06;9.73;;;5.33;;
43552;SDS011;29153;42.696;23.218;2024-02-15T14:20:37;7.60;;;4.00;;
43552;SDS011;29153;42.696;23.218;2024-02-15T14:23:04;7.70;;;3.52;;
43552;SDS011;29153;42.696;23.218;2024-02-15T14:25:32;7.87;;;3.62;;
43552;SDS011;29153;42.696;23.218;2024-02-15T14:28:01;7.75;;;3.20;;
43552;SDS011;29153;42.696;23.218;2024-02-15T14:30:29;9.18;;;4.10;;
43552;SDS011;29153;42.696;23.218;2024-02-15T14:33:15;7.60;;;3.77;;
43552;SDS011;29153;42.696;23.218;2024-02-15T14:35:44;6.25;;;3.42;;
43552;SDS011;29153;42.696;23.218;2024-02-15T14:38:12;6.83;;;3.02;;
43552;SDS011;29153;42.696;23.218;2024-02-15T14:40:41;10.18;;;6.03;;
43552;SDS011;29153;42.696;23.218;2024-02-15T14:43:11;8.80;;;4.90;;
43552;SDS011;29153;42.696;23.218;2024-02-15T14:45:40;7.33;;;3.92;;
43552;SDS011;29153;42.696;23.218;2024-02-15T14:48:08;8.05;;;4.15;;
43552;SDS011;29153;42.696;23.218;2024-02-15T14:50:36;11.48;;;6.03;;
43552;SDS011;29153;42.696;23.218;2024-02-15T14:53:04;10.15;;;5.15;;
43552;SDS011;29153;42.696;23.218;2024-02-15T14:55:34;12.10;;;6.42;;
43552;SDS011;29153;42.696;23.218;2024-02-15T14:58:05;13.58;;;7.03;;